Time;durP1;ratioP1;P1;durP2;ratioP2;P2;SDS_P1;SDS_P2;PMS_P1;PMS_P2;Temp;Humidity;BMP_temperature;BMP_pressure;BME280_temperature;BME280_humidity;BME280_pressure;Samples;Min_cycle;Max_cycle;Signal;HPM_P1;HPM_P2
2022/12/24 00:01:21;;;;;;;32.70;30.50;;;;;;;0.99;100.00;100516.88;5012537;28;20429;-45
2022/12/24 00:03:49;;;;;;;59.77;47.97;;;;;;;0.99;100.00;100516.03;5011713;28;20479;-45
2022/12/24 00:06:19;;;;;;;46.57;42.13;;;;;;;0.98;100.00;100517.03;5011828;28;20437;-48
2022/12/24 00:08:47;;;;;;;38.70;34.93;;;;;;;0.96;100.00;100519.78;5012432;28;20456;-45
2022/12/24 00:11:17;;;;;;;35.27;32.47;;;;;;;0.95;100.00;100523.41;5012464;28;20921;-46
2022/12/24 00:13:44;;;;;;;32.13;29.90;;;;;;;0.96;100.00;100524.19;5011801;28;20465;-46
2022/12/24 00:16:12;;;;;;;33.13;30.50;;;;;;;0.96;100.00;100529.44;5012050;28;20438;-48
2022/12/24 00:18:40;;;;;;;32.93;30.83;;;;;;;0.95;100.00;100528.66;5012110;28;20540;-49
2022/12/24 00:21:13;;;;;;;33.63;31.30;;;;;;;0.96;100.00;100524.19;5012192;28;20429;-46
2022/12/24 00:23:41;;;;;;;35.23;32.13;;;;;;;0.94;100.00;100532.22;5011758;28;20560;-45
2022/12/24 00:26:09;;;;;;;33.27;30.47;;;;;;;0.91;100.00;100529.88;5012269;28;20508;-47
2022/12/24 00:28:38;;;;;;;32.27;30.20;;;;;;;0.92;100.00;100530.72;5012283;28;20439;-45
2022/12/24 00:31:11;;;;;;;34.57;31.73;;;;;;;0.93;100.00;100538.44;5012305;28;20507;-45
2022/12/24 00:33:39;;;;;;;32.80;30.27;;;;;;;0.93;100.00;100533.19;5011113;28;20982;-45
2022/12/24 00:36:08;;;;;;;32.50;30.40;;;;;;;0.92;100.00;100535.97;5012037;28;20816;-45
2022/12/24 00:38:36;;;;;;;32.20;30.03;;;;;;;0.93;100.00;100538.44;5001724;28;20437;-44
2022/12/24 00:41:22;;;;;;;32.83;30.50;;;;;;;0.92;100.00;100536.81;5011524;28;20516;-45
2022/12/24 00:43:54;;;;;;;31.57;29.53;;;;;;;0.90;100.00;100538.72;5011382;28;20464;-47
2022/12/24 00:46:23;;;;;;;32.90;30.50;;;;;;;0.90;100.00;100546.59;5011961;28;20903;-45
2022/12/24 00:48:50;;;;;;;32.10;30.00;;;;;;;0.93;100.00;100542.84;5015950;28;20440;-45
2022/12/24 00:51:19;;;;;;;32.93;30.60;;;;;;;0.95;100.00;100543.56;5015996;28;20942;-45
2022/12/24 00:53:47;;;;;;;34.40;31.73;;;;;;;0.96;100.00;100540.78;5015378;28;20522;-49
2022/12/24 00:56:15;;;;;;;33.30;30.60;;;;;;;0.98;100.00;100540.66;5015654;28;20781;-46
2022/12/24 00:58:42;;;;;;;32.80;30.40;;;;;;;1.01;100.00;100543.00;5016115;28;20771;-44
2022/12/24 01:01:12;;;;;;;33.27;31.00;;;;;;;1.03;100.00;100547.16;5016377;28;20890;-45
2022/12/24 01:03:40;;;;;;;32.80;30.57;;;;;;;1.04;100.00;100546.19;5015026;28;20542;-46
2022/12/24 01:06:09;;;;;;;36.03;33.13;;;;;;;1.09;100.00;100540.50;5015230;28;20479;-48
2022/12/24 01:08:37;;;;;;;33.10;30.90;;;;;;;1.13;100.00;100539.25;5015308;28;20938;-50
2022/12/24 01:11:06;;;;;;;34.57;31.50;;;;;;;1.19;100.00;100543.13;5015473;28;20433;-46
2022/12/24 01:13:34;;;;;;;33.60;31.30;;;;;;;1.22;100.00;100546.28;5014900;28;20885;-49
2022/12/24 01:16:02;;;;;;;34.90;31.90;;;;;;;1.26;100.00;100539.75;5015317;28;20433;-49
2022/12/24 01:18:31;;;;;;;34.70;32.00;;;;;;;1.31;100.00;100548.06;5014960;28;20901;-49
2022/12/24 01:21:00;;;;;;;34.63;32.23;;;;;;;1.37;100.00;100544.88;5015155;28;20453;-48
2022/12/24 01:23:28;;;;;;;34.17;31.87;;;;;;;1.40;100.00;100547.22;5014440;28;20499;-50
2022/12/24 01:26:00;;;;;;;34.93;32.47;;;;;;;1.45;100.00;100546.78;5015085;28;20499;-49
2022/12/24 01:28:28;;;;;;;35.67;32.73;;;;;;;1.47;100.00;100544.81;5015168;28;20449;-47
2022/12/24 01:30:55;;;;;;;34.97;32.37;;;;;;;1.51;100.00;100552.28;5015268;28;20455;-45
2022/12/24 01:33:23;;;;;;;34.90;32.33;;;;;;;1.55;100.00;100560.72;5014705;28;20885;-45
2022/12/24 01:35:52;;;;;;;36.20;32.83;;;;;;;1.59;100.00;100565.53;5014651;28;20923;-46
2022/12/24 01:38:20;;;;;;;38.00;34.60;;;;;;;1.62;100.00;100560.00;5011026;28;20465;-49
2022/12/24 01:43:31;;;;;;;36.43;33.70;;;;;;;1.68;100.00;100567.31;4962271;28;20997;-48
2022/12/24 01:46:01;;;;;;;35.10;32.40;;;;;;;1.73;100.00;100571.31;4994936;28;20895;-46
2022/12/24 01:48:35;;;;;;;34.60;31.93;;;;;;;1.75;100.00;100580.72;4995152;28;20521;-45
2022/12/24 01:51:14;;;;;;;36.20;33.33;;;;;;;1.80;100.00;100578.47;4995515;28;20441;-46
2022/12/24 01:53:45;;;;;;;35.80;33.20;;;;;;;1.84;100.00;100586.91;4994655;28;20470;-45
2022/12/24 01:56:13;;;;;;;36.60;33.90;;;;;;;1.89;100.00;100584.66;4994885;28;20426;-45
2022/12/24 01:58:46;;;;;;;36.20;33.60;;;;;;;1.91;100.00;100582.72;4994529;28;20450;-45
2022/12/24 02:01:13;;;;;;;36.30;33.87;;;;;;;1.93;100.00;100586.88;4995288;28;20913;-45
2022/12/24 02:03:41;;;;;;;36.10;33.60;;;;;;;1.94;100.00;100577.97;4994702;28;20469;-47
2022/12/24 02:06:15;;;;;;;37.20;34.40;;;;;;;1.96;100.00;100580.50;4994612;28;20470;-48
2022/12/24 02:08:43;;;;;;;38.03;35.07;;;;;;;1.98;100.00;100586.41;4994849;28;20446;-48
2022/12/24 02:11:12;;;;;;;37.53;34.70;;;;;;;1.99;100.00;100588.91;4994888;28;20496;-48
2022/12/24 02:13:42;;;;;;;36.70;34.03;;;;;;;1.98;100.00;100594.31;4994316;28;20855;-46
2022/12/24 02:16:21;;;;;;;37.90;34.60;;;;;;;1.99;100.00;100599.44;4994476;28;20434;-47
2022/12/24 02:18:57;;;;;;;38.20;35.50;;;;;;;1.98;100.00;100596.94;4994764;28;20485;-46
2022/12/24 02:21:40;;;;;;;36.73;34.17;;;;;;;2.01;100.00;100589.59;4994614;28;20830;-46
2022/12/24 02:24:47;;;;;;;36.83;34.10;;;;;;;2.04;100.00;100591.09;4994196;28;20840;-46
2022/12/24 02:27:25;;;;;;;35.90;33.40;;;;;;;2.04;100.00;100599.00;4994645;28;20461;-45
2022/12/24 02:30:08;;;;;;;36.20;33.50;;;;;;;2.04;100.00;100594.56;4994410;28;20425;-46
2022/12/24 02:32:45;;;;;;;36.90;34.13;;;;;;;2.07;100.00;100598.69;4994092;28;20978;-48
2022/12/24 02:35:19;;;;;;;37.40;34.17;;;;;;;2.08;100.00;100606.47;4994316;28;20430;-46
2022/12/24 02:37:52;;;;;;;37.10;34.20;;;;;;;2.08;100.00;100600.38;4998531;28;20465;-47
2022/12/24 02:40:25;;;;;;;38.90;35.90;;;;;;;2.07;100.00;100609.22;5007239;28;20425;-48
2022/12/24 02:42:57;;;;;;;39.53;36.23;;;;;;;2.06;100.00;100610.22;5013150;28;20495;-45
2022/12/24 02:45:30;;;;;;;37.40;34.80;;;;;;;2.04;100.00;100601.63;5013765;28;20484;-45
2022/12/24 02:48:00;;;;;;;39.03;36.03;;;;;;;2.04;100.00;100618.25;5013548;28;21052;-49
2022/12/24 02:50:28;;;;;;;40.27;36.97;;;;;;;2.04;100.00;100617.41;5013689;28;20531;-45
2022/12/24 02:52:56;;;;;;;37.10;34.30;;;;;;;2.03;100.00;100613.13;5012858;28;20487;-46
2022/12/24 02:55:31;;;;;;;36.73;34.20;;;;;;;2.03;100.00;100610.50;5001272;28;20442;-45
2022/12/24 02:58:16;;;;;;;39.57;36.47;;;;;;;2.04;100.00;100609.50;5012084;28;20460;-46
2022/12/24 03:00:55;;;;;;;40.40;37.50;;;;;;;2.04;100.00;100622.66;5013374;28;20927;-46
2022/12/24 03:03:34;;;;;;;37.77;35.13;;;;;;;2.06;100.00;100615.47;5012835;28;20465;-50
2022/12/24 03:06:13;;;;;;;38.13;35.43;;;;;;;2.06;100.00;100618.91;5013119;28;20469;-45
2022/12/24 03:08:48;;;;;;;38.17;35.47;;;;;;;2.08;100.00;100618.78;5013140;28;20938;-45
2022/12/24 03:11:18;;;;;;;37.83;34.90;;;;;;;2.08;100.00;100621.41;5012266;28;20425;-46
2022/12/24 03:13:47;;;;;;;38.63;35.13;;;;;;;2.09;100.00;100613.34;5012506;28;20461;-46
2022/12/24 03:16:21;;;;;;;37.33;34.60;;;;;;;2.10;100.00;100620.28;5012473;28;20507;-47
2022/12/24 03:18:50;;;;;;;40.47;37.50;;;;;;;2.12;100.00;100626.22;5013017;28;20464;-50
2022/12/24 03:21:23;;;;;;;37.60;34.97;;;;;;;2.13;100.00;100629.69;5012939;28;20950;-45
2022/12/24 03:23:51;;;;;;;37.40;34.17;;;;;;;2.15;100.00;100630.38;5012363;28;20461;-47
2022/12/24 03:26:20;;;;;;;39.83;36.10;;;;;;;2.18;100.00;100630.91;5012377;28;20476;-49
2022/12/24 03:28:48;;;;;;;39.37;36.63;;;;;;;2.18;100.00;100641.44;5012942;28;20468;-47
2022/12/24 03:31:18;;;;;;;39.67;37.00;;;;;;;2.21;100.00;100640.34;5012812;28;20464;-48
2022/12/24 03:33:47;;;;;;;38.33;35.53;;;;;;;2.23;100.00;100646.28;5012122;28;20523;-46
2022/12/24 03:36:15;;;;;;;41.13;37.70;;;;;;;2.25;100.00;100652.19;5012425;28;20436;-45
2022/12/24 03:38:43;;;;;;;38.17;35.57;;;;;;;2.27;100.00;100637.09;4997490;28;20434;-45
2022/12/24 03:41:10;;;;;;;38.30;35.50;;;;;;;2.29;100.00;100653.59;4993107;28;20442;-46
2022/12/24 03:43:38;;;;;;;38.50;35.40;;;;;;;2.30;100.00;100649.94;4992270;28;20473;-46
2022/12/24 03:46:07;;;;;;;40.40;37.33;;;;;;;2.34;100.00;100651.34;4992480;28;20473;-49
2022/12/24 03:48:36;;;;;;;38.80;35.90;;;;;;;2.33;100.00;100641.78;4992918;28;20430;-48
2022/12/24 03:51:04;;;;;;;40.03;37.23;;;;;;;2.36;100.00;100643.31;4992899;28;20437;-48
2022/12/24 03:53:32;;;;;;;39.10;36.37;;;;;;;2.37;100.00;100650.22;4992180;28;20466;-46
2022/12/24 03:56:00;;;;;;;40.23;36.87;;;;;;;2.38;100.00;100650.06;4992635;28;20437;-50
2022/12/24 03:58:27;;;;;;;39.23;36.17;;;;;;;2.41;100.00;100646.31;4992547;28;20462;-49
2022/12/24 04:00:55;;;;;;;40.53;37.43;;;;;;;2.42;100.00;100645.34;4992736;28;20437;-46
2022/12/24 04:03:22;;;;;;;38.37;35.43;;;;;;;2.43;100.00;100649.63;4992163;28;20465;-46
2022/12/24 04:06:01;;;;;;;38.77;35.80;;;;;;;2.46;100.00;100651.97;4992276;28;20477;-48
2022/12/24 04:08:29;;;;;;;40.73;37.43;;;;;;;2.45;100.00;100645.88;4992713;28;20457;-45
2022/12/24 04:10:56;;;;;;;38.37;35.87;;;;;;;2.46;100.00;100644.91;4992847;28;20438;-46
2022/12/24 04:13:24;;;;;;;37.97;35.37;;;;;;;2.47;100.00;100653.63;4992149;28;20469;-46
2022/12/24 04:15:58;;;;;;;39.20;36.40;;;;;;;2.49;100.00;100662.19;4992272;28;20436;-49
2022/12/24 04:18:25;;;;;;;41.43;38.10;;;;;;;2.50;100.00;100654.16;4992717;28;20470;-50
2022/12/24 04:20:53;;;;;;;39.60;36.43;;;;;;;2.48;100.00;100661.38;4992456;28;20454;-50
2022/12/24 04:23:22;;;;;;;39.70;36.90;;;;;;;2.47;100.00;100667.63;4991768;28;20469;-52
2022/12/24 04:25:50;;;;;;;38.27;35.57;;;;;;;2.47;100.00;100661.53;4992376;28;20805;-54
2022/12/24 04:28:18;;;;;;;38.30;35.00;;;;;;;2.49;100.00;100663.03;4992418;28;20461;-51
2022/12/24 04:30:46;;;;;;;38.20;35.40;;;;;;;2.45;100.00;100661.66;4992358;28;20440;-48
2022/12/24 04:33:13;;;;;;;39.20;36.40;;;;;;;2.48;100.00;100661.38;4991985;28;21022;-49
2022/12/24 04:35:41;;;;;;;37.27;34.57;;;;;;;2.48;100.00;100673.72;4992661;28;20434;-48
2022/12/24 04:38:10;;;;;;;37.73;34.73;;;;;;;2.48;100.00;100668.47;4996786;28;20855;-50
2022/12/24 04:40:39;;;;;;;39.37;36.13;;;;;;;2.50;100.00;100669.13;5007598;28;20433;-52
2022/12/24 04:43:06;;;;;;;38.67;35.17;;;;;;;2.51;100.00;100670.78;5011376;28;20519;-53
2022/12/24 04:45:34;;;;;;;39.90;37.10;;;;;;;2.51;100.00;100670.78;5011492;28;20433;-49
2022/12/24 04:48:01;;;;;;;39.73;36.57;;;;;;;2.52;100.00;100668.00;5011957;28;20477;-52
2022/12/24 04:50:29;;;;;;;40.07;37.07;;;;;;;2.53;100.00;100672.31;5011978;28;20491;-54
2022/12/24 04:52:56;;;;;;;40.73;37.63;;;;;;;2.54;100.00;100673.13;5011436;28;20465;-51
2022/12/24 04:55:24;;;;;;;39.27;35.90;;;;;;;2.56;100.00;100674.63;5011615;28;20437;-52
2022/12/24 04:57:53;;;;;;;38.47;35.80;;;;;;;2.56;100.00;100679.06;5011638;28;20965;-47
2022/12/24 05:00:21;;;;;;;39.77;36.53;;;;;;;2.59;100.00;100687.50;5011957;28;20429;-51
2022/12/24 05:02:48;;;;;;;39.50;36.33;;;;;;;2.60;100.00;100689.16;5011405;28;20457;-51
2022/12/24 05:05:16;;;;;;;38.87;35.90;;;;;;;2.64;100.00;100687.88;5011372;28;20492;-52
2022/12/24 05:07:44;;;;;;;39.03;35.77;;;;;;;2.67;100.00;100698.13;5011557;28;20564;-49
2022/12/24 05:10:12;;;;;;;39.80;36.80;;;;;;;2.68;100.00;100689.25;5011594;28;20444;-50
2022/12/24 05:12:39;;;;;;;40.23;37.27;;;;;;;2.72;100.00;100692.41;5011040;28;20962;-53
2022/12/24 05:15:09;;;;;;;38.73;35.97;;;;;;;2.74;100.00;100699.22;5011484;28;20439;-49
2022/12/24 05:17:36;;;;;;;40.37;37.20;;;;;;;2.77;100.00;100693.66;5011271;28;20990;-50
2022/12/24 05:20:05;;;;;;;39.97;37.10;;;;;;;2.82;100.00;100695.00;5011633;28;20440;-49
2022/12/24 05:28:03;;;;;;;38.90;36.10;;;;;;;2.88;100.00;100699.66;5011575;28;20480;-51
2022/12/24 05:30:32;;;;;;;39.80;36.83;;;;;;;2.91;100.00;100709.91;5011570;28;20437;-52
2022/12/24 05:33:00;;;;;;;39.80;36.60;;;;;;;2.92;100.00;100706.31;5011139;28;20870;-54
2022/12/24 05:35:28;;;;;;;39.77;36.87;;;;;;;2.94;100.00;100712.25;5014249;28;20988;-52
2022/12/24 05:37:57;;;;;;;41.30;38.30;;;;;;;2.96;100.00;100702.38;5009445;28;20461;-52
2022/12/24 05:40:25;;;;;;;40.57;37.13;;;;;;;2.99;100.00;100702.91;5009124;28;20429;-51
2022/12/24 05:42:53;;;;;;;40.10;37.40;;;;;;;3.01;100.00;100702.78;5014466;28;20868;-52
2022/12/24 05:45:20;;;;;;;42.40;39.40;;;;;;;3.02;100.00;100710.53;5014639;28;20433;-51
2022/12/24 05:47:49;;;;;;;40.57;37.60;;;;;;;3.05;100.00;100712.84;5014587;28;20480;-52
2022/12/24 05:50:17;;;;;;;37.73;35.43;;;;;;;3.07;100.00;100710.09;5014607;28;20497;-51
2022/12/24 05:52:45;;;;;;;39.77;36.50;;;;;;;3.07;100.00;100710.09;5014125;28;20457;-54
2022/12/24 05:55:12;;;;;;;39.80;36.77;;;;;;;3.06;100.00;100708.44;5014269;28;20444;-48
2022/12/24 05:57:40;;;;;;;38.93;35.97;;;;;;;3.06;100.00;100714.53;5014363;28;20453;-49
2022/12/24 06:00:09;;;;;;;37.67;35.03;;;;;;;3.06;100.00;100714.53;5014598;28;20433;-53
2022/12/24 06:02:37;;;;;;;38.83;35.97;;;;;;;3.08;100.00;100712.56;5013876;28;20507;-49
2022/12/24 06:05:06;;;;;;;38.67;35.80;;;;;;;3.11;100.00;100714.06;5014342;28;20536;-51
2022/12/24 06:07:34;;;;;;;38.47;35.80;;;;;;;3.10;100.00;100712.44;5014344;28;20480;-49
2022/12/24 06:10:02;;;;;;;37.40;34.73;;;;;;;3.11;100.00;100714.91;5014298;28;20437;-49
2022/12/24 06:12:30;;;;;;;40.00;36.90;;;;;;;3.11;100.00;100714.91;5013735;28;20998;-50
2022/12/24 06:14:57;;;;;;;38.50;35.50;;;;;;;3.12;100.00;100718.38;5014026;28;20433;-50
2022/12/24 06:17:25;;;;;;;37.57;34.97;;;;;;;3.12;100.00;100718.38;5013928;28;21332;-52
2022/12/24 06:19:52;;;;;;;39.83;36.87;;;;;;;3.12;100.00;100713.94;5014111;28;20438;-49
2022/12/24 06:22:21;;;;;;;38.60;36.10;;;;;;;3.12;100.00;100713.09;5013565;28;20998;-49
2022/12/24 06:24:49;;;;;;;39.00;36.40;;;;;;;3.09;100.00;100719.50;5013914;28;20433;-53
2022/12/24 06:27:17;;;;;;;38.80;36.10;;;;;;;3.10;100.00;100722.97;5013690;28;20480;-49
2022/12/24 06:29:45;;;;;;;37.67;34.93;;;;;;;3.11;100.00;100721.97;5013834;28;20437;-52
2022/12/24 06:32:12;;;;;;;37.53;34.57;;;;;;;3.13;100.00;100733.22;5013564;28;20453;-50
2022/12/24 06:34:40;;;;;;;37.30;34.90;;;;;;;3.12;100.00;100739.44;5013711;28;20488;-50
2022/12/24 06:37:15;;;;;;;36.17;33.97;;;;;;;3.13;100.00;100738.47;5010067;28;20524;-53
2022/12/24 06:39:44;;;;;;;36.93;34.57;;;;;;;3.13;100.00;100738.47;5005645;28;20425;-53
2022/12/24 06:42:12;;;;;;;39.27;36.57;;;;;;;3.13;100.00;100744.59;5013307;28;20469;-52
2022/12/24 06:44:40;;;;;;;36.80;34.30;;;;;;;3.15;100.00;100739.97;5013763;28;20441;-54
2022/12/24 06:47:07;;;;;;;37.90;35.50;;;;;;;3.14;100.00;100738.31;5013689;28;20476;-53
2022/12/24 06:49:35;;;;;;;37.77;35.10;;;;;;;3.15;100.00;100734.72;5013760;28;20799;-54
2022/12/24 06:52:03;;;;;;;36.77;34.03;;;;;;;3.15;100.00;100741.78;5013173;28;20469;-49
2022/12/24 06:54:30;;;;;;;37.17;34.47;;;;;;;3.16;100.00;100746.91;5013357;28;20436;-52
2022/12/24 06:56:59;;;;;;;39.13;36.00;;;;;;;3.16;100.00;100743.44;5012316;28;20457;-53
2022/12/24 06:59:27;;;;;;;39.20;36.70;;;;;;;3.15;100.00;100753.16;5013244;28;20452;-51
2022/12/24 07:01:54;;;;;;;38.37;35.67;;;;;;;3.14;100.00;100754.13;5013069;28;20692;-51
2022/12/24 07:04:22;;;;;;;38.47;35.67;;;;;;;3.12;100.00;100753.44;5013105;28;20814;-51
2022/12/24 07:06:50;;;;;;;37.53;34.77;;;;;;;3.13;100.00;100762.19;5013395;28;20457;-52
2022/12/24 07:09:18;;;;;;;37.40;34.73;;;;;;;3.13;100.00;100763.03;5013170;28;20472;-50
2022/12/24 07:11:45;;;;;;;39.73;36.30;;;;;;;3.12;100.00;100768.44;5012338;28;20787;-51
2022/12/24 07:14:14;;;;;;;37.27;34.73;;;;;;;3.14;100.00;100771.72;5013111;28;20441;-49
2022/12/24 07:16:42;;;;;;;38.07;35.30;;;;;;;3.15;100.00;100781.31;5012913;28;20472;-53
2022/12/24 07:19:10;;;;;;;36.87;34.67;;;;;;;3.13;100.00;100785.91;5013036;28;20836;-53
2022/12/24 07:21:37;;;;;;;38.47;35.57;;;;;;;3.11;100.00;100779.94;4995804;28;20457;-48
2022/12/24 07:24:05;;;;;;;39.00;35.60;;;;;;;3.10;100.00;100781.78;5000842;28;20451;-52
2022/12/24 07:26:33;;;;;;;38.00;35.13;;;;;;;3.11;100.00;100780.78;4996315;28;21088;-48
2022/12/24 07:29:01;;;;;;;37.10;34.40;;;;;;;3.08;100.00;100788.13;4992303;28;20474;-49
2022/12/24 07:31:30;;;;;;;41.00;37.30;;;;;;;3.08;100.00;100790.75;4983543;28;20430;-50
2022/12/24 07:33:58;;;;;;;38.60;35.80;;;;;;;3.09;100.00;100781.91;4991731;28;20438;-49
2022/12/24 07:36:27;;;;;;;39.53;36.57;;;;;;;3.06;100.00;100785.66;5004491;28;20440;-54
2022/12/24 07:38:55;;;;;;;38.23;35.53;;;;;;;3.04;100.00;100784.16;5001380;28;20450;-50
2022/12/24 07:41:23;;;;;;;38.60;35.80;;;;;;;3.00;100.00;100780.97;5011015;28;20441;-51
2022/12/24 07:43:50;;;;;;;39.97;37.27;;;;;;;2.96;100.00;100790.13;5010589;28;20481;-52
2022/12/24 07:46:18;;;;;;;36.87;34.23;;;;;;;2.92;100.00;100788.78;5011124;28;20433;-48
2022/12/24 07:48:47;;;;;;;36.90;34.00;;;;;;;2.89;100.00;100793.53;5011354;28;20971;-49
2022/12/24 07:51:15;;;;;;;37.30;34.70;;;;;;;2.90;100.00;100796.00;5011103;28;20464;-52
2022/12/24 07:53:46;;;;;;;37.73;34.30;;;;;;;2.90;100.00;100790.72;5010051;28;20469;-49
2022/12/24 07:56:15;;;;;;;38.73;35.63;;;;;;;2.94;100.00;100807.91;5010128;28;20438;-49
2022/12/24 07:58:43;;;;;;;38.47;35.50;;;;;;;2.95;100.00;100824.53;5011035;28;20460;-50
2022/12/24 08:01:10;;;;;;;36.97;34.40;;;;;;;2.94;100.00;100826.34;5011024;28;20425;-47
2022/12/24 08:03:38;;;;;;;38.13;35.10;;;;;;;2.95;100.00;100817.47;5009904;28;20469;-50
2022/12/24 08:06:08;;;;;;;36.33;33.83;;;;;;;2.96;100.00;100821.75;5011222;28;20483;-53
2022/12/24 08:08:36;;;;;;;37.10;34.73;;;;;;;2.96;100.00;100823.56;5003494;28;20513;-51
2022/12/24 08:11:06;;;;;;;36.50;33.77;;;;;;;3.01;100.00;100821.31;4990844;28;20438;-50
2022/12/24 08:13:34;;;;;;;36.63;34.03;;;;;;;2.97;100.00;100818.16;4990220;28;20500;-53
2022/12/24 08:16:02;;;;;;;36.20;33.00;;;;;;;2.98;100.00;100837.44;4991322;28;20434;-51
2022/12/24 08:18:30;;;;;;;35.90;33.30;;;;;;;2.97;100.00;100833.97;4990884;28;20458;-50
2022/12/24 08:20:57;;;;;;;36.10;33.43;;;;;;;2.95;100.00;100837.72;4991515;28;20434;-51
2022/12/24 08:23:26;;;;;;;35.90;33.40;;;;;;;2.96;100.00;100844.63;4994016;28;20469;-49
2022/12/24 08:25:54;;;;;;;36.53;33.63;;;;;;;2.94;100.00;100841.31;5010884;28;20437;-50
2022/12/24 08:28:22;;;;;;;37.07;34.13;;;;;;;2.94;100.00;100850.06;5010829;28;20889;-52
2022/12/24 08:30:50;;;;;;;36.00;33.50;;;;;;;2.95;100.00;100842.97;5010749;28;20964;-51
2022/12/24 08:33:19;;;;;;;36.33;33.40;;;;;;;2.94;100.00;100851.84;4992008;28;20850;-50
2022/12/24 08:35:48;;;;;;;36.13;33.23;;;;;;;2.94;100.00;100850.06;4999354;28;20422;-51
2022/12/24 08:38:17;;;;;;;37.17;33.70;;;;;;;2.96;100.00;100853.34;5002418;28;20991;-53
2022/12/24 08:40:48;;;;;;;36.20;33.30;;;;;;;3.00;100.00;100854.75;5007566;28;20433;-53
2022/12/24 08:43:17;;;;;;;37.67;34.80;;;;;;;2.99;100.00;100855.72;5010298;28;20465;-55
2022/12/24 08:45:45;;;;;;;36.23;33.20;;;;;;;2.98;100.00;100853.22;5010560;28;20440;-52
2022/12/24 08:48:13;;;;;;;34.47;31.80;;;;;;;3.00;100.00;100857.38;5010670;28;20491;-53
2022/12/24 08:50:41;;;;;;;36.97;34.37;;;;;;;2.99;100.00;100854.88;5007559;28;20440;-53
2022/12/24 08:53:10;;;;;;;37.33;34.33;;;;;;;3.02;100.00;100859.84;4989921;28;20477;-52
2022/12/24 08:55:38;;;;;;;35.67;33.07;;;;;;;2.99;100.00;100853.06;4990205;28;20936;-52
2022/12/24 08:58:07;;;;;;;36.90;34.13;;;;;;;3.05;100.00;100856.91;4990965;28;20461;-48
2022/12/24 09:00:35;;;;;;;35.63;33.10;;;;;;;3.06;100.00;100859.44;4992779;28;20446;-53
2022/12/24 09:03:02;;;;;;;37.90;35.00;;;;;;;3.04;100.00;100853.50;5009793;28;20905;-49
2022/12/24 09:05:30;;;;;;;37.10;34.00;;;;;;;3.07;100.00;100857.63;5009887;28;21020;-49
2022/12/24 09:07:58;;;;;;;37.03;34.43;;;;;;;3.11;100.00;100856.34;5009799;28;20970;-48
2022/12/24 09:10:26;;;;;;;36.80;33.77;;;;;;;3.14;100.00;100848.16;5013709;28;20476;-53
2022/12/24 09:12:53;;;;;;;35.83;32.70;;;;;;;3.15;100.00;100849.81;5013809;28;20841;-48
2022/12/24 09:15:22;;;;;;;35.73;33.03;;;;;;;3.19;100.00;100844.13;5013015;28;20467;-51
2022/12/24 09:17:50;;;;;;;35.80;33.20;;;;;;;3.22;100.00;100856.16;5012308;28;21193;-51
2022/12/24 09:20:18;;;;;;;35.73;33.27;;;;;;;3.24;100.00;100865.59;4994130;28;20445;-49
2022/12/24 09:22:45;;;;;;;36.77;33.97;;;;;;;3.30;100.00;100866.81;4993185;28;20473;-50
2022/12/24 09:25:13;;;;;;;35.50;32.90;;;;;;;3.34;100.00;100871.63;4993688;28;20445;-52
2022/12/24 09:27:41;;;;;;;36.03;33.10;;;;;;;3.41;100.00;100876.31;4994391;28;20469;-49
2022/12/24 09:30:10;;;;;;;36.97;34.03;;;;;;;3.40;100.00;100879.94;4994144;28;21025;-49
2022/12/24 09:32:39;;;;;;;36.73;34.10;;;;;;;3.43;100.00;100872.56;4993551;28;20465;-52
2022/12/24 09:35:07;;;;;;;36.37;33.50;;;;;;;3.46;100.00;100882.81;4995741;28;20471;-48
2022/12/24 09:37:35;;;;;;;37.47;34.60;;;;;;;3.48;100.00;100885.28;4993907;28;20565;-49
2022/12/24 09:40:04;;;;;;;37.30;34.20;;;;;;;3.53;100.00;100897.06;4998409;28;20434;-48
2022/12/24 09:42:43;;;;;;;39.57;36.43;;;;;;;3.61;100.00;100904.25;4997349;28;20497;-48
2022/12/24 09:45:19;;;;;;;36.53;33.57;;;;;;;3.59;100.00;100898.25;4992231;28;20484;-48
2022/12/24 09:47:52;;;;;;;38.90;35.70;;;;;;;3.63;100.00;100897.00;5001589;28;20464;-52
2022/12/24 09:50:33;;;;;;;36.67;33.80;;;;;;;3.68;100.00;100900.03;5012074;28;20485;-52
2022/12/24 09:53:05;;;;;;;38.30;35.53;;;;;;;3.71;100.00;100905.00;4993355;28;21114;-51
2022/12/24 09:55:37;;;;;;;37.40;34.60;;;;;;;3.78;100.00;100912.19;4993207;28;20437;-49
2022/12/24 09:58:10;;;;;;;36.97;34.37;;;;;;;3.79;100.00;100907.75;4993440;28;21114;-49
2022/12/24 10:00:38;;;;;;;37.87;35.07;;;;;;;3.79;100.00;100913.81;4993901;28;20430;-50
2022/12/24 10:03:16;;;;;;;35.70;33.07;;;;;;;3.82;100.00;100913.53;4988430;28;21364;-49
2022/12/24 10:05:49;;;;;;;36.40;33.90;;;;;;;3.87;100.00;100910.47;5008592;28;20510;-48
2022/12/24 10:08:27;;;;;;;37.03;33.77;;;;;;;3.86;100.00;100906.97;5012767;28;20457;-49
2022/12/24 10:10:59;;;;;;;35.50;32.90;;;;;;;3.85;100.00;100902.69;5012878;28;20472;-48
2022/12/24 10:13:40;;;;;;;37.33;34.47;;;;;;;3.84;100.00;100894.94;5012124;28;20476;-49
2022/12/24 10:16:17;;;;;;;35.17;32.47;;;;;;;3.89;100.00;100914.59;5012441;28;20899;-51
2022/12/24 10:18:55;;;;;;;38.13;35.17;;;;;;;3.99;100.00;100913.72;5012734;28;20938;-49
2022/12/24 10:21:32;;;;;;;38.47;35.23;;;;;;;4.04;100.00;100917.56;5011308;28;20890;-51
2022/12/24 10:24:06;;;;;;;35.73;32.97;;;;;;;4.10;100.00;100921.38;5012108;28;20437;-48
2022/12/24 10:26:44;;;;;;;34.97;32.70;;;;;;;4.14;100.00;100928.88;4997486;28;20887;-48
2022/12/24 10:29:17;;;;;;;35.23;32.93;;;;;;;4.17;100.00;100922.47;5005062;28;20476;-49
2022/12/24 10:31:53;;;;;;;35.03;32.73;;;;;;;4.18;100.00;100932.84;5011655;28;20433;-50
2022/12/24 10:34:24;;;;;;;34.10;32.00;;;;;;;4.19;100.00;100931.03;5011489;28;20432;-50
2022/12/24 10:36:52;;;;;;;33.57;31.23;;;;;;;4.16;100.00;100932.19;5008425;28;20478;-52
2022/12/24 10:39:23;;;;;;;34.70;32.30;;;;;;;4.22;100.00;100931.59;5001975;28;20432;-50
2022/12/24 10:41:54;;;;;;;35.13;32.83;;;;;;;4.29;100.00;100929.16;4992136;28;20473;-52
2022/12/24 10:44:24;;;;;;;34.03;31.93;;;;;;;4.34;100.00;100935.66;4992204;28;20946;-50
2022/12/24 10:46:52;;;;;;;35.40;32.70;;;;;;;4.36;100.00;100928.41;4992745;28;20458;-51
2022/12/24 10:49:28;;;;;;;36.10;33.60;;;;;;;4.36;100.00;100922.31;4991912;28;21007;-50
2022/12/24 10:52:00;;;;;;;35.30;32.43;;;;;;;4.43;100.00;100939.19;4991855;28;20966;-49
2022/12/24 10:54:33;;;;;;;35.53;33.10;;;;;;;4.44;100.00;100936.41;4991724;28;20429;-51
2022/12/24 10:57:02;;;;;;;34.57;32.20;;;;;;;4.41;100.00;100935.88;4993021;28;20466;-50
2022/12/24 10:59:32;;;;;;;33.30;31.10;;;;;;;4.39;100.00;100927.28;5007774;22;21022;-48
2022/12/24 11:02:01;;;;;;;33.57;31.37;;;;;;;4.40;100.00;100934.22;4971874;28;20469;-53
2022/12/24 11:04:32;;;;;;;33.40;30.90;;;;;;;4.34;100.00;100940.94;4972716;28;20439;-46
2022/12/24 11:07:02;;;;;;;33.47;31.27;;;;;;;4.38;100.00;100939.66;4971592;28;20479;-48
2022/12/24 11:09:32;;;;;;;33.43;31.20;;;;;;;4.43;100.00;100937.38;4971664;28;20876;-49
2022/12/24 11:12:03;;;;;;;33.33;30.90;;;;;;;4.45;100.00;100950.41;4972044;28;20493;-52
2022/12/24 11:14:38;;;;;;;33.50;31.17;;;;;;;4.47;100.00;100941.38;4970822;28;20523;-49
2022/12/24 11:17:06;;;;;;;34.13;31.60;;;;;;;4.49;100.00;100943.88;4971784;28;20485;-49
2022/12/24 11:19:38;;;;;;;33.00;30.80;;;;;;;4.47;100.00;100938.75;4972106;28;20455;-52
2022/12/24 11:22:17;;;;;;;36.43;33.63;;;;;;;4.42;100.00;100935.72;4971561;28;20494;-52
2022/12/24 11:24:46;;;;;;;37.00;34.30;;;;;;;4.43;100.00;100932.09;4971478;28;20455;-52
2022/12/24 11:27:43;;;;;;;39.03;35.90;;;;;;;4.43;100.00;100928.63;4971245;28;20441;-48
2022/12/24 11:30:19;;;;;;;33.73;31.50;;;;;;;4.40;100.00;100928.94;4968420;28;20482;-48